Glendale, Arkansas
Current Conditions -  °F | °C
As of 5:53 PM on Friday 24 Oct 2014 (Local Time) from KPBF Reporting Station
Clear Clear  
Wind Chill: 22°   Ceiling: Unl
Heat Index: 22°   Visibility: 10mi
Dew Point: 13°   Wind: 3mph
Humidity: 59%   Direction: 240°WSW
Pressure: 30.1"   Gusts: NA
Location:  33.924°N, 91.8685°W
Report Text: KPBF 242253Z AUTO 24003KT 10SM CLR 22/13 A3010 RMK AO2 SLP190 T02170133
Loading
Personal Weather Stations






























Interactive Weather Map
Tropical Storm Tracking
New forecast layout! Learn more

10-Day Weather Forecast

Advertisements
Track Severe Weather on mobile